Time;durP1;ratioP1;P1;durP2;ratioP2;P2;SDS_P1;SDS_P2;PMS_P1;PMS_P2;Temp;Humidity;BMP_temperature;BMP_pressure;BME280_temperature;BME280_humidity;BME280_pressure;Samples;Min_cycle;Max_cycle;Signal;HPM_P1;HPM_P2
2022/07/25 00:00:12;;;;;;;;;;;;;;;29.71;50.63;98755.78;2079358;28;19936;-68
2022/07/25 00:01:14;;;;;;;;;;;;;;;29.73;50.62;98761.81;2078220;28;19929;-69
2022/07/25 00:02:15;;;;;;;;;;;;;;;29.69;50.63;98760.69;2078415;28;19929;-68
2022/07/25 00:03:16;;;;;;;;;;;;;;;29.67;51.00;98760.19;2073997;28;20201;-67
2022/07/25 00:04:17;;;;;;;;;;;;;;;29.68;51.28;98764.53;2077372;28;19933;-68
2022/07/25 00:05:18;;;;;;;;;;;;;;;29.64;50.90;98759.88;2074405;28;20394;-67
2022/07/25 00:06:19;;;;;;;;;;;;;;;29.54;51.26;98758.75;2076251;28;19925;-66
2022/07/25 00:07:21;;;;;;;;;;;;;;;29.48;51.45;98759.06;2077782;28;19928;-67
2022/07/25 00:08:21;;;;;;;;;;;;;;;29.50;51.33;98756.84;2075556;28;20079;-67
2022/07/25 00:09:23;;;;;;;;;;;;;;;29.54;51.23;98753.31;2077534;28;20363;-67
2022/07/25 00:10:25;;;;;;;;;;;;;;;29.55;51.13;98752.19;2076482;28;19945;-68
2022/07/25 00:11:26;;;;;;;;;;;;;;;29.59;51.00;98757.97;2076609;28;19925;-68
2022/07/25 00:12:27;;;;;;;;;;;;;;;29.58;51.02;98759.84;2070101;28;19956;-69
2022/07/25 00:13:28;;;;;;;;;;;;;;;29.63;50.79;98753.59;2072430;28;20229;-69
2022/07/25 00:14:29;;;;;;;;;;;;;;;29.64;50.96;98755.22;2075144;28;19929;-70
2022/07/25 00:15:31;;;;;;;;;;;;;;;29.59;50.98;98755.22;2074233;28;20020;-67
2022/07/25 00:16:32;;;;;;;;;;;;;;;29.59;51.15;98750.56;2076070;28;19947;-68
2022/07/25 00:17:33;;;;;;;;;;;;;;;29.58;50.97;98756.31;2076971;28;20508;-69
2022/07/25 00:18:34;;;;;;;;;;;;;;;29.55;51.44;98756.84;2071483;28;20386;-68
2022/07/25 00:19:35;;;;;;;;;;;;;;;29.55;50.87;98754.94;2075245;28;19932;-68
2022/07/25 00:20:36;;;;;;;;;;;;;;;29.55;51.13;98760.41;2076419;28;20382;-68
2022/07/25 00:21:37;;;;;;;;;;;;;;;29.57;50.88;98760.13;2077313;28;19932;-67
2022/07/25 00:22:38;;;;;;;;;;;;;;;29.57;50.97;98760.13;2076535;28;19932;-68
2022/07/25 00:23:40;;;;;;;;;;;;;;;29.59;50.77;98758.78;2075411;28;20121;-67
2022/07/25 00:24:40;;;;;;;;;;;;;;;29.60;50.88;98754.13;2072174;28;19991;-69
2022/07/25 00:25:43;;;;;;;;;;;;;;;29.63;50.95;98759.06;2075899;28;22449;-68
2022/07/25 00:26:44;;;;;;;;;;;;;;;29.64;50.68;98749.75;2075487;28;19925;-67
2022/07/25 00:27:45;;;;;;;;;;;;;;;29.65;50.86;98751.41;2069967;28;19929;-67
2022/07/25 00:28:46;;;;;;;;;;;;;;;29.61;50.83;98756.59;2071073;28;19936;-67
2022/07/25 00:29:48;;;;;;;;;;;;;;;29.66;51.02;98752.22;2077225;28;20079;-68
2022/07/25 00:30:48;;;;;;;;;;;;;;;29.64;50.90;98751.69;2072784;28;19939;-66
2022/07/25 00:31:50;;;;;;;;;;;;;;;29.51;51.27;98751.13;2076199;28;20141;-68
2022/07/25 00:32:51;;;;;;;;;;;;;;;29.54;51.37;98749.75;2075047;28;20270;-67
2022/07/25 00:33:53;;;;;;;;;;;;;;;29.54;51.32;98750.56;2076844;28;19933;-67
2022/07/25 00:34:53;;;;;;;;;;;;;;;29.54;51.55;98753.31;2076381;28;19936;-70
2022/07/25 00:35:55;;;;;;;;;;;;;;;29.53;51.37;98750.81;2077002;28;20188;-67
2022/07/25 00:36:55;;;;;;;;;;;;;;;29.54;51.48;98745.09;2075822;28;19924;-67
2022/07/25 00:37:57;;;;;;;;;;;;;;;29.53;51.27;98748.94;2073520;28;20504;-67
2022/07/25 00:38:57;;;;;;;;;;;;;;;29.55;51.25;98744.00;2074100;28;19933;-69
2022/07/25 00:39:59;;;;;;;;;;;;;;;29.58;51.61;98745.38;2076753;28;19936;-69
2022/07/25 00:41:01;;;;;;;;;;;;;;;29.59;51.27;98744.28;2075246;28;20600;-67
2022/07/25 00:42:03;;;;;;;;;;;;;;;29.59;51.35;98747.84;2077174;28;19933;-69
2022/07/25 00:43:03;;;;;;;;;;;;;;;29.56;51.73;98742.91;2073938;28;20298;-67
2022/07/25 00:44:05;;;;;;;;;;;;;;;29.56;51.45;98742.91;2077500;28;20024;-69
2022/07/25 00:45:06;;;;;;;;;;;;;;;29.57;51.37;98741.81;2074207;28;19928;-67
2022/07/25 00:46:08;;;;;;;;;;;;;;;29.51;51.61;98745.66;2076064;28;20008;-69
2022/07/25 00:47:08;;;;;;;;;;;;;;;29.53;51.61;98740.75;2074262;28;20532;-66
2022/07/25 00:48:10;;;;;;;;;;;;;;;29.50;51.86;98741.25;2075819;28;19945;-68
2022/07/25 00:49:10;;;;;;;;;;;;;;;29.52;51.58;98739.09;2072688;28;19929;-68
2022/07/25 00:50:12;;;;;;;;;;;;;;;29.52;51.87;98746.47;2074505;28;20461;-69
2022/07/25 00:51:14;;;;;;;;;;;;;;;29.52;51.49;98739.09;2075158;28;20457;-67
2022/07/25 00:52:15;;;;;;;;;;;;;;;29.45;52.25;98740.44;2076634;28;19964;-67
2022/07/25 00:53:16;;;;;;;;;;;;;;;29.34;52.38;98736.91;2076571;28;19929;-69
2022/07/25 00:54:18;;;;;;;;;;;;;;;29.21;52.96;98748.34;2075027;28;19933;-70
2022/07/25 00:55:19;;;;;;;;;;;;;;;29.25;53.06;98741.25;2074871;28;19936;-67
2022/07/25 00:56:23;;;;;;;;;;;;;;;29.27;52.88;98737.16;2073812;28;20012;-68
2022/07/25 00:57:23;;;;;;;;;;;;;;;29.22;52.94;98741.78;2075174;28;19940;-68
2022/07/25 00:58:25;;;;;;;;;;;;;;;29.28;52.54;98746.16;2072801;28;19929;-68
2022/07/25 00:59:26;;;;;;;;;;;;;;;29.27;52.73;98733.59;2072507;28;19929;-68
2022/07/25 01:00:27;;;;;;;;;;;;;;;29.22;52.67;98739.88;2076552;28;20198;-69
2022/07/25 01:01:28;;;;;;;;;;;;;;;29.12;53.37;98727.03;2074036;28;19940;-68
2022/07/25 01:02:29;;;;;;;;;;;;;;;29.15;53.27;98737.41;2075853;28;20493;-68
2022/07/25 01:03:30;;;;;;;;;;;;;;;29.20;52.99;98733.88;2077628;28;20079;-67
2022/07/25 01:04:31;;;;;;;;;;;;;;;29.25;52.68;98728.41;2078591;28;20457;-69
2022/07/25 01:05:32;;;;;;;;;;;;;;;29.32;52.47;98730.88;2075292;28;19929;-67
2022/07/25 01:06:34;;;;;;;;;;;;;;;29.33;52.64;98733.31;2075787;28;20535;-66
2022/07/25 01:07:35;;;;;;;;;;;;;;;29.38;52.13;98736.06;2076217;28;19948;-68
2022/07/25 01:08:36;;;;;;;;;;;;;;;29.39;52.30;98728.69;2075701;28;19929;-67
2022/07/25 01:09:37;;;;;;;;;;;;;;;29.39;52.54;98728.69;2076185;28;19928;-68
2022/07/25 01:10:39;;;;;;;;;;;;;;;29.34;52.61;98728.72;2071899;28;20500;-66
2022/07/25 01:11:41;;;;;;;;;;;;;;;29.36;52.54;98723.78;2074548;28;20253;-69
2022/07/25 01:12:48;;;;;;;;;;;;;;;29.38;52.61;98727.06;2074481;28;20310;-69
2022/07/25 01:13:48;;;;;;;;;;;;;;;29.36;52.75;98724.63;2073827;28;20334;-69
2022/07/25 01:14:50;;;;;;;;;;;;;;;29.38;52.60;98718.88;2076654;28;19929;-67
2022/07/25 01:15:51;;;;;;;;;;;;;;;29.38;52.54;98729.78;2074407;28;20004;-67
2022/07/25 01:16:52;;;;;;;;;;;;;;;29.35;52.80;98722.16;2076278;28;20667;-66
2022/07/25 01:17:54;;;;;;;;;;;;;;;29.36;52.75;98726.50;2075913;28;19929;-68
2022/07/25 01:18:54;;;;;;;;;;;;;;;29.36;52.59;98726.50;2076581;28;19951;-67
2022/07/25 01:19:56;;;;;;;;;;;;;;;29.33;52.62;98724.31;2074592;28;19925;-68
2022/07/25 01:20:58;;;;;;;;;;;;;;;29.28;52.88;98735.25;2076040;28;21611;-66
2022/07/25 01:21:59;;;;;;;;;;;;;;;29.13;53.94;98722.38;2075674;28;20282;-67
2022/07/25 01:23:00;;;;;;;;;;;;;;;29.18;53.37;98727.88;2076463;28;20478;-67
2022/07/25 01:24:01;;;;;;;;;;;;;;;29.23;53.36;98719.69;2074882;28;19939;-68
2022/07/25 01:25:02;;;;;;;;;;;;;;;29.23;53.28;98722.41;2075949;28;20294;-67
2022/07/25 01:26:04;;;;;;;;;;;;;;;29.14;53.77;98730.31;2075628;28;19936;-68
2022/07/25 01:27:04;;;;;;;;;;;;;;;29.21;53.60;98721.84;2066876;28;20425;-68
2022/07/25 01:28:06;;;;;;;;;;;;;;;29.21;53.43;98729.25;2075343;28;19928;-67
2022/07/25 01:29:06;;;;;;;;;;;;;;;29.26;53.12;98726.50;2071911;28;19956;-68
2022/07/25 01:30:10;;;;;;;;;;;;;;;29.30;53.03;98728.41;2073369;28;19935;-67
2022/07/25 01:31:10;;;;;;;;;;;;;;;29.34;53.15;98726.78;2074850;28;19986;-68
2022/07/25 01:32:12;;;;;;;;;;;;;;;29.33;53.25;98729.78;2074530;28;19937;-67
2022/07/25 01:33:14;;;;;;;;;;;;;;;29.27;53.30;98728.97;2070063;28;19936;-67
2022/07/25 01:34:16;;;;;;;;;;;;;;;29.30;53.21;98733.06;2069874;28;19935;-66
2022/07/25 01:35:17;;;;;;;;;;;;;;;29.33;53.05;98724.31;2054847;28;19929;-67
2022/07/25 01:36:20;;;;;;;;;;;;;;;29.35;52.75;98727.59;2072261;28;20025;-67
2022/07/25 01:37:20;;;;;;;;;;;;;;;29.34;52.74;98725.97;2075214;28;20287;-67
2022/07/25 01:38:22;;;;;;;;;;;;;;;29.31;53.04;98731.97;2073478;28;20024;-66
2022/07/25 01:39:22;;;;;;;;;;;;;;;29.34;52.81;98729.53;2075359;28;20418;-68
2022/07/25 01:40:24;;;;;;;;;;;;;;;29.33;53.01;98721.59;2074972;28;19931;-69
2022/07/25 01:41:24;;;;;;;;;;;;;;;29.33;53.06;98722.41;2077687;28;19929;-69
2022/07/25 01:42:26;;;;;;;;;;;;;;;29.27;53.47;98725.41;2065089;28;19929;-67
2022/07/25 01:43:27;;;;;;;;;;;;;;;29.30;53.46;98716.66;2072675;28;20455;-69
2022/07/25 01:44:28;;;;;;;;;;;;;;;29.17;53.58;98723.50;2072229;28;19929;-69
2022/07/25 01:45:29;;;;;;;;;;;;;;;29.18;53.50;98723.22;2071897;28;19933;-68
2022/07/25 01:46:31;;;;;;;;;;;;;;;29.09;53.98;98730.31;2075765;28;20983;-69
2022/07/25 01:47:31;;;;;;;;;;;;;;;28.92;54.33;98721.53;2077541;28;19925;-67
2022/07/25 01:48:33;;;;;;;;;;;;;;;29.00;54.06;98725.59;2076669;28;19940;-67
2022/07/25 01:49:33;;;;;;;;;;;;;;;28.76;54.84;98723.38;2075797;28;19940;-69
2022/07/25 01:50:35;;;;;;;;;;;;;;;28.64;55.27;98720.91;2074392;28;20247;-69
2022/07/25 01:51:37;;;;;;;;;;;;;;;28.82;55.09;98725.03;2074609;28;19929;-68
2022/07/25 01:52:39;;;;;;;;;;;;;;;28.84;54.80;98719.31;2077557;28;20334;-70
2022/07/25 01:53:40;;;;;;;;;;;;;;;28.84;54.79;98720.13;2075043;28;19999;-67
2022/07/25 01:54:42;;;;;;;;;;;;;;;28.88;54.67;98721.22;2074372;28;20294;-68
2022/07/25 01:55:44;;;;;;;;;;;;;;;28.92;54.74;98724.25;2071305;28;21139;-67
2022/07/25 01:56:45;;;;;;;;;;;;;;;28.70;55.56;98716.28;2071933;28;19929;-67
2022/07/25 01:57:46;;;;;;;;;;;;;;;28.63;55.47;98718.41;2075023;28;19929;-68
2022/07/25 01:58:47;;;;;;;;;;;;;;;28.74;55.12;98722.81;2074241;28;19929;-67
2022/07/25 01:59:49;;;;;;;;;;;;;;;28.76;55.04;98719.84;2072640;28;19939;-69
2022/07/25 02:00:49;;;;;;;;;;;;;;;28.84;54.87;98709.22;2077867;28;19928;-69
2022/07/25 02:01:51;;;;;;;;;;;;;;;28.80;54.79;98712.72;2078264;28;19925;-69
2022/07/25 02:03:28;;;;;;;;;;;;;;;28.81;54.91;98717.13;2074238;28;20307;-69
2022/07/25 02:04:13;;;;;;;;;;;;;;;28.87;54.73;98707.84;2072355;28;19979;-68
2022/07/25 02:05:14;;;;;;;;;;;;;;;28.85;55.21;98705.38;2068726;28;19928;-68
2022/07/25 02:06:17;;;;;;;;;;;;;;;28.74;55.36;98712.72;2073650;28;20011;-69
2022/07/25 02:07:20;;;;;;;;;;;;;;;28.70;55.57;98706.16;2076787;28;19933;-68
2022/07/25 02:08:22;;;;;;;;;;;;;;;28.50;55.96;98708.81;2076650;28;19942;-67
2022/07/25 02:09:23;;;;;;;;;;;;;;;28.51;56.07;98707.75;2072234;28;20154;-68
2022/07/25 02:10:24;;;;;;;;;;;;;;;28.54;55.85;98707.19;2071704;28;20298;-67
2022/07/25 02:11:25;;;;;;;;;;;;;;;28.58;55.80;98710.22;2076275;28;19940;-67
2022/07/25 02:12:26;;;;;;;;;;;;;;;28.51;56.13;98708.56;2074736;28;20938;-67
2022/07/25 02:13:27;;;;;;;;;;;;;;;28.66;55.67;98706.97;2069749;28;19939;-68
2022/07/25 02:14:28;;;;;;;;;;;;;;;28.67;55.56;98709.44;2073439;28;20150;-68
2022/07/25 02:15:30;;;;;;;;;;;;;;;28.77;55.30;98707.81;2074797;28;19933;-68
2022/07/25 02:16:30;;;;;;;;;;;;;;;28.84;54.76;98706.47;2075873;28;20448;-69
2022/07/25 02:17:32;;;;;;;;;;;;;;;28.86;54.69;98707.03;2077537;28;19929;-67
2022/07/25 02:18:32;;;;;;;;;;;;;;;28.73;54.86;98702.09;2078006;28;19948;-67
2022/07/25 02:19:34;;;;;;;;;;;;;;;28.70;55.27;98702.63;2076106;28;20422;-68
2022/07/25 02:20:35;;;;;;;;;;;;;;;28.67;55.47;98709.44;2076852;28;19929;-69
2022/07/25 02:21:36;;;;;;;;;;;;;;;28.79;55.19;98708.38;2077904;28;19932;-67
2022/07/25 02:22:38;;;;;;;;;;;;;;;28.90;54.49;98712.78;2077849;28;19929;-69
2022/07/25 02:23:40;;;;;;;;;;;;;;;28.99;54.35;98711.13;2073755;28;20031;-67
2022/07/25 02:24:40;;;;;;;;;;;;;;;29.06;53.84;98706.28;2072992;28;19937;-69
2022/07/25 02:25:42;;;;;;;;;;;;;;;29.08;53.98;98704.06;2076687;28;19929;-67
2022/07/25 02:26:43;;;;;;;;;;;;;;;29.13;53.67;98706.81;2078200;28;19931;-68
2022/07/25 02:27:44;;;;;;;;;;;;;;;29.13;53.87;98706.00;2077600;28;20398;-68
2022/07/25 02:28:45;;;;;;;;;;;;;;;29.12;53.99;98701.66;2077116;28;20392;-69
2022/07/25 02:29:46;;;;;;;;;;;;;;;29.16;53.97;98709.00;2074200;28;20656;-67
2022/07/25 02:30:47;;;;;;;;;;;;;;;29.13;54.13;98706.81;2075196;28;19929;-69
2022/07/25 02:31:50;;;;;;;;;;;;;;;29.13;54.36;98704.09;2077308;28;19960;-68
2022/07/25 02:32:51;;;;;;;;;;;;;;;28.95;54.73;98705.41;2077865;28;19925;-67
2022/07/25 02:33:53;;;;;;;;;;;;;;;29.03;54.32;98703.22;2076868;28;19937;-67
2022/07/25 02:34:53;;;;;;;;;;;;;;;29.10;54.23;98704.63;2076669;28;20472;-67
2022/07/25 02:35:55;;;;;;;;;;;;;;;29.14;54.04;98705.75;2077830;28;19929;-66
2022/07/25 02:36:55;;;;;;;;;;;;;;;29.21;54.08;98710.13;2077676;28;19944;-68
2022/07/25 02:37:58;;;;;;;;;;;;;;;29.23;53.76;98711.50;2077888;28;20210;-69
2022/07/25 02:38:58;;;;;;;;;;;;;;;29.24;53.65;98706.84;2076015;28;20356;-68
2022/07/25 02:40:00;;;;;;;;;;;;;;;29.27;53.91;98706.28;2071754;28;20592;-67
2022/07/25 02:41:02;;;;;;;;;;;;;;;29.27;53.75;98707.09;2074578;28;19945;-68
2022/07/25 02:42:02;;;;;;;;;;;;;;;29.31;53.51;98704.63;2077222;28;19940;-69
2022/07/25 02:43:04;;;;;;;;;;;;;;;29.32;53.49;98704.38;2077652;28;20058;-67
2022/07/25 02:44:05;;;;;;;;;;;;;;;29.34;53.65;98706.84;2078384;28;19956;-67
2022/07/25 02:45:07;;;;;;;;;;;;;;;29.36;53.59;98704.66;2074615;28;20312;-69
2022/07/25 02:46:08;;;;;;;;;;;;;;;29.30;53.80;98700.28;2075236;28;20076;-67
2022/07/25 02:47:09;;;;;;;;;;;;;;;29.24;53.92;98704.91;2076885;28;20528;-68
2022/07/25 02:48:10;;;;;;;;;;;;;;;29.09;54.33;98704.91;2076220;28;19971;-70
2022/07/25 02:49:11;;;;;;;;;;;;;;;29.16;54.39;98706.28;2077426;28;20270;-69
2022/07/25 02:50:12;;;;;;;;;;;;;;;29.22;54.07;98698.09;2077434;28;19936;-68
2022/07/25 02:51:13;;;;;;;;;;;;;;;29.26;54.01;98699.19;2075578;28;19932;-66
2022/07/25 02:52:14;;;;;;;;;;;;;;;29.29;53.77;98702.19;2076210;28;20290;-68
2022/07/25 02:53:17;;;;;;;;;;;;;;;29.31;53.70;98704.63;2075574;28;19929;-69
2022/07/25 02:54:18;;;;;;;;;;;;;;;29.33;53.87;98697.81;2076105;28;19960;-69
2022/07/25 02:55:20;;;;;;;;;;;;;;;29.34;53.57;98695.94;2072307;28;19929;-68
2022/07/25 02:56:21;;;;;;;;;;;;;;;29.35;53.52;98697.56;2076029;28;19936;-69
2022/07/25 02:57:22;;;;;;;;;;;;;;;29.37;53.52;98700.84;2075812;28;19940;-68
2022/07/25 02:58:23;;;;;;;;;;;;;;;29.38;53.55;98703.28;2071490;28;20313;-69
2022/07/25 02:59:24;;;;;;;;;;;;;;;29.40;53.39;98698.38;2074207;28;19929;-68
2022/07/25 03:00:25;;;;;;;;;;;;;;;29.37;53.77;98693.47;2070060;28;20174;-67
2022/07/25 03:01:26;;;;;;;;;;;;;;;29.40;53.72;98694.81;2073467;28;20339;-68
2022/07/25 03:02:27;;;;;;;;;;;;;;;29.21;54.81;98693.72;2073119;28;19933;-68
2022/07/25 03:03:28;;;;;;;;;;;;;;;29.07;54.78;98691.53;2067970;28;19960;-69
2022/07/25 03:04:30;;;;;;;;;;;;;;;28.84;55.36;98697.47;2076327;28;19936;-68
2022/07/25 03:05:31;;;;;;;;;;;;;;;28.71;56.06;98694.16;2075197;28;20019;-67
2022/07/25 03:06:32;;;;;;;;;;;;;;;28.66;56.20;98691.41;2076931;28;19935;-68
2022/07/25 03:07:33;;;;;;;;;;;;;;;28.85;55.48;98690.91;2077845;28;19939;-67
2022/07/25 03:08:35;;;;;;;;;;;;;;;28.99;55.13;98694.75;2078072;28;19936;-69
2022/07/25 03:09:37;;;;;;;;;;;;;;;29.11;54.73;98691.78;2075588;28;19937;-69
2022/07/25 03:10:37;;;;;;;;;;;;;;;29.21;54.21;98682.81;2069238;28;19929;-69
2022/07/25 03:11:39;;;;;;;;;;;;;;;29.25;54.19;98690.16;2073584;28;20267;-69
2022/07/25 03:12:40;;;;;;;;;;;;;;;29.22;54.18;98689.91;2075968;28;19952;-70
2022/07/25 03:13:42;;;;;;;;;;;;;;;29.11;54.38;98689.91;2077674;28;19933;-67
2022/07/25 03:14:43;;;;;;;;;;;;;;;29.10;54.43;98688.25;2075979;28;19932;-68
2022/07/25 03:15:44;;;;;;;;;;;;;;;29.08;54.54;98682.22;2076960;28;20370;-69
2022/07/25 03:16:45;;;;;;;;;;;;;;;29.05;54.83;98690.16;2075269;28;20207;-69
2022/07/25 03:17:46;;;;;;;;;;;;;;;29.11;54.53;98687.19;2076178;28;19935;-68
2022/07/25 03:18:47;;;;;;;;;;;;;;;28.96;54.91;98687.09;2077618;28;19929;-67
2022/07/25 03:19:48;;;;;;;;;;;;;;;28.96;55.09;98679.72;2076020;28;19935;-67
2022/07/25 03:20:49;;;;;;;;;;;;;;;29.04;54.68;98683.88;2077041;28;20302;-67
2022/07/25 03:21:50;;;;;;;;;;;;;;;29.04;54.82;98692.06;2071657;28;20020;-68
2022/07/25 03:22:51;;;;;;;;;;;;;;;29.07;54.65;98688.78;2074705;28;19929;-67
2022/07/25 03:23:54;;;;;;;;;;;;;;;28.97;54.73;98691.47;2072684;28;20148;-68
2022/07/25 03:24:55;;;;;;;;;;;;;;;29.07;54.67;98696.16;2074584;28;20215;-70
2022/07/25 03:25:56;;;;;;;;;;;;;;;29.16;54.45;98692.63;2075323;28;20314;-69
2022/07/25 03:26:57;;;;;;;;;;;;;;;29.06;54.60;98681.69;2075839;28;20228;-69
2022/07/25 03:27:59;;;;;;;;;;;;;;;28.89;55.43;98694.72;2076583;28;19929;-68
2022/07/25 03:28:59;;;;;;;;;;;;;;;28.96;55.00;98689.84;2076616;28;19979;-67
2022/07/25 03:30:01;;;;;;;;;;;;;;;28.93;55.05;98695.84;2077374;28;19932;-68
2022/07/25 03:31:02;;;;;;;;;;;;;;;28.98;54.89;98686.84;2076970;28;20024;-68
2022/07/25 03:32:04;;;;;;;;;;;;;;;29.00;54.82;98696.38;2076145;28;20295;-69
2022/07/25 03:33:04;;;;;;;;;;;;;;;28.88;55.00;98693.09;2072920;28;20601;-67
2022/07/25 03:34:06;;;;;;;;;;;;;;;28.89;55.04;98697.47;2077948;28;19929;-67
2022/07/25 03:35:07;;;;;;;;;;;;;;;28.72;55.33;98693.09;2074930;28;20085;-68
2022/07/25 03:36:09;;;;;;;;;;;;;;;28.76;55.57;98693.34;2075616;28;20015;-67
2022/07/25 03:37:11;;;;;;;;;;;;;;;28.75;55.63;98694.41;2073319;28;19936;-67
2022/07/25 03:38:11;;;;;;;;;;;;;;;28.81;55.41;98693.38;2077354;28;20027;-67
2022/07/25 03:39:14;;;;;;;;;;;;;;;28.87;55.12;98694.19;2070915;28;19933;-68
2022/07/25 03:40:15;;;;;;;;;;;;;;;28.76;55.80;98689.81;2073729;28;20198;-68
2022/07/25 03:41:17;;;;;;;;;;;;;;;28.81;55.54;98692.56;2075171;28;20302;-68
2022/07/25 03:42:17;;;;;;;;;;;;;;;28.86;55.49;98692.53;2077489;28;19990;-66
2022/07/25 03:43:19;;;;;;;;;;;;;;;28.94;55.22;98686.56;2076644;28;19933;-66
2022/07/25 03:44:20;;;;;;;;;;;;;;;29.01;54.81;98687.13;2077719;28;19968;-68
2022/07/25 03:45:21;;;;;;;;;;;;;;;29.03;54.72;98687.72;2073768;28;19936;-67
2022/07/25 03:46:22;;;;;;;;;;;;;;;29.04;55.03;98691.25;2073798;28;19944;-66
2022/07/25 03:47:23;;;;;;;;;;;;;;;29.07;54.77;98688.78;2075091;28;19943;-69
2022/07/25 03:48:24;;;;;;;;;;;;;;;29.12;54.56;98694.25;2077497;28;19935;-68
2022/07/25 03:49:25;;;;;;;;;;;;;;;29.18;54.45;98697.81;2069751;28;20458;-69
2022/07/25 03:50:26;;;;;;;;;;;;;;;29.15;54.94;98699.19;2073245;28;20753;-67
2022/07/25 03:51:27;;;;;;;;;;;;;;;29.17;54.53;98694.28;2074819;28;20578;-69
2022/07/25 03:52:28;;;;;;;;;;;;;;;29.20;54.41;98694.81;2075436;28;19933;-67
2022/07/25 03:53:30;;;;;;;;;;;;;;;29.22;54.28;98692.63;2071523;28;19933;-67
2022/07/25 03:54:32;;;;;;;;;;;;;;;29.27;54.03;98698.91;2078584;28;20426;-68
2022/07/25 03:55:33;;;;;;;;;;;;;;;29.28;54.12;98702.47;2075137;28;20517;-69
2022/07/25 03:56:36;;;;;;;;;;;;;;;29.27;54.19;98706.28;2076661;28;20027;-68
2022/07/25 03:57:37;;;;;;;;;;;;;;;29.25;54.05;98701.09;2076210;28;19931;-67
2022/07/25 03:58:38;;;;;;;;;;;;;;;29.13;54.80;98709.56;2076006;28;19925;-66
2022/07/25 03:59:39;;;;;;;;;;;;;;;29.16;54.74;98709.00;2073258;28;20088;-69
2022/07/25 04:00:40;;;;;;;;;;;;;;;29.17;54.67;98705.19;2076769;28;20522;-68
2022/07/25 04:01:42;;;;;;;;;;;;;;;29.16;54.72;98709.00;2076795;28;19928;-68
2022/07/25 04:02:44;;;;;;;;;;;;;;;29.18;54.67;98709.56;2076465;28;20497;-67
2022/07/25 04:03:44;;;;;;;;;;;;;;;29.07;55.27;98702.44;2074523;28;19925;-69
2022/07/25 04:04:46;;;;;;;;;;;;;;;29.14;54.70;98710.38;2075061;28;20235;-66
2022/07/25 04:05:46;;;;;;;;;;;;;;;29.09;55.03;98705.72;2075261;28;19974;-69
2022/07/25 04:06:48;;;;;;;;;;;;;;;29.08;55.32;98701.34;2075300;28;19937;-75
2022/07/25 04:07:49;;;;;;;;;;;;;;;29.08;55.35;98704.06;2077127;28;19928;-73
2022/07/25 04:08:50;;;;;;;;;;;;;;;29.01;55.47;98708.16;2069137;28;19932;-75
2022/07/25 04:09:53;;;;;;;;;;;;;;;28.99;55.72;98710.31;2070512;28;19929;-72
2022/07/25 04:10:54;;;;;;;;;;;;;;;29.00;55.51;98701.84;2070602;28;19929;-73
2022/07/25 04:11:55;;;;;;;;;;;;;;;29.10;55.13;98704.63;2076964;28;20008;-72
2022/07/25 04:12:56;;;;;;;;;;;;;;;29.17;54.90;98707.13;2078952;28;19929;-74
2022/07/25 04:13:58;;;;;;;;;;;;;;;29.20;54.67;98706.56;2079059;28;20231;-72
2022/07/25 04:14:58;;;;;;;;;;;;;;;29.20;54.60;98705.72;2076525;28;20195;-67
2022/07/25 04:16:00;;;;;;;;;;;;;;;29.22;54.43;98709.81;2073236;28;20418;-69
2022/07/25 04:17:00;;;;;;;;;;;;;;;29.18;54.77;98706.81;2076573;28;19933;-69
2022/07/25 04:18:02;;;;;;;;;;;;;;;29.12;55.04;98709.84;2072993;28;19928;-67
2022/07/25 04:19:03;;;;;;;;;;;;;;;29.05;55.21;98707.34;2077087;28;20205;-69
2022/07/25 04:20:05;;;;;;;;;;;;;;;28.98;55.48;98714.97;2075301;28;20652;-68
2022/07/25 04:21:06;;;;;;;;;;;;;;;28.96;55.63;98708.94;2076366;28;20250;-66
2022/07/25 04:22:08;;;;;;;;;;;;;;;28.97;55.41;98713.31;2074691;28;20393;-69
2022/07/25 04:23:08;;;;;;;;;;;;;;;29.00;55.49;98703.75;2075842;28;20393;-67
2022/07/25 04:24:10;;;;;;;;;;;;;;;28.97;55.36;98710.59;2070312;28;20027;-67
2022/07/25 04:25:12;;;;;;;;;;;;;;;29.00;55.36;98720.16;2074439;28;19933;-69
2022/07/25 04:26:13;;;;;;;;;;;;;;;29.02;55.41;98716.06;2079767;28;20033;-69
2022/07/25 04:27:14;;;;;;;;;;;;;;;28.88;55.66;98715.75;2076305;28;20398;-68
2022/07/25 04:28:15;;;;;;;;;;;;;;;28.81;56.04;98715.22;2076518;28;20016;-67
2022/07/25 04:29:16;;;;;;;;;;;;;;;28.85;55.95;98716.28;2076181;28;20500;-68
2022/07/25 04:30:18;;;;;;;;;;;;;;;28.84;55.81;98705.66;2075384;28;19929;-67
2022/07/25 04:31:18;;;;;;;;;;;;;;;28.89;55.64;98706.50;2075205;28;20016;-69
2022/07/25 04:32:20;;;;;;;;;;;;;;;28.89;55.66;98708.38;2075575;28;20415;-67
2022/07/25 04:33:20;;;;;;;;;;;;;;;28.87;55.96;98714.13;2072927;28;19929;-67
2022/07/25 04:34:22;;;;;;;;;;;;;;;28.75;55.96;98710.81;2076727;28;20336;-67
2022/07/25 04:35:22;;;;;;;;;;;;;;;28.66;56.33;98706.97;2074207;28;20188;-68
2022/07/25 04:36:25;;;;;;;;;;;;;;;28.70;56.32;98706.16;2076557;28;20413;-67
2022/07/25 04:37:26;;;;;;;;;;;;;;;28.68;56.34;98710.25;2074491;28;20038;-69
2022/07/25 04:38:27;;;;;;;;;;;;;;;28.74;55.98;98704.53;2075422;28;19933;-67
2022/07/25 04:39:29;;;;;;;;;;;;;;;28.80;56.00;98701.81;2067002;28;20249;-67
2022/07/25 04:40:31;;;;;;;;;;;;;;;28.93;55.60;98706.75;2075614;28;19933;-68
2022/07/25 04:41:32;;;;;;;;;;;;;;;29.02;55.20;98701.59;2076710;28;19974;-67
2022/07/25 04:42:33;;;;;;;;;;;;;;;28.99;55.36;98711.13;2077745;28;19929;-67
2022/07/25 04:43:34;;;;;;;;;;;;;;;28.96;55.51;98706.22;2074237;28;20197;-67
2022/07/25 04:44:35;;;;;;;;;;;;;;;29.01;55.32;98708.97;2076780;28;19933;-67
2022/07/25 04:45:36;;;;;;;;;;;;;;;28.98;55.42;98703.22;2075093;28;19925;-68
2022/07/25 04:46:37;;;;;;;;;;;;;;;28.92;55.47;98702.41;2069412;28;19929;-69
2022/07/25 04:47:38;;;;;;;;;;;;;;;28.96;55.59;98706.22;2071480;28;19925;-69
2022/07/25 04:48:39;;;;;;;;;;;;;;;28.94;55.73;98692.81;2077391;28;20308;-67
2022/07/25 04:49:40;;;;;;;;;;;;;;;28.92;55.80;98699.69;2072480;28;20325;-69
2022/07/25 04:50:41;;;;;;;;;;;;;;;29.00;55.35;98698.31;2074889;28;19929;-67
2022/07/25 04:51:42;;;;;;;;;;;;;;;28.95;55.45;98694.50;2072781;28;20756;-67
2022/07/25 04:52:43;;;;;;;;;;;;;;;29.00;55.32;98701.84;2073130;28;19929;-69
2022/07/25 04:53:45;;;;;;;;;;;;;;;29.05;55.27;98699.16;2073271;28;20769;-67
2022/07/25 04:54:45;;;;;;;;;;;;;;;29.06;55.04;98692.63;2077521;28;19933;-68
2022/07/25 04:55:48;;;;;;;;;;;;;;;29.04;55.13;98697.53;2074852;28;20222;-69
2022/07/25 04:56:49;;;;;;;;;;;;;;;29.07;55.05;98701.63;2073647;28;19928;-67
2022/07/25 04:57:50;;;;;;;;;;;;;;;29.05;55.28;98693.69;2075953;28;20404;-69
2022/07/25 04:58:51;;;;;;;;;;;;;;;29.02;55.32;98696.94;2076672;28;19933;-69
2022/07/25 04:59:52;;;;;;;;;;;;;;;29.06;55.23;98700.81;2074962;28;19935;-69
2022/07/25 05:00:53;;;;;;;;;;;;;;;29.07;55.23;98702.44;2074088;28;20005;-66
2022/07/25 05:01:54;;;;;;;;;;;;;;;29.04;55.21;98703.00;2078088;28;19940;-68
2022/07/25 05:02:55;;;;;;;;;;;;;;;29.06;54.90;98692.63;2068511;28;19980;-66
2022/07/25 05:03:57;;;;;;;;;;;;;;;29.11;54.81;98700.84;2075312;28;19940;-67
2022/07/25 05:04:57;;;;;;;;;;;;;;;28.91;55.93;98695.28;2076661;28;19929;-67
2022/07/25 05:05:59;;;;;;;;;;;;;;;28.99;55.46;98696.66;2068239;28;20425;-68
2022/07/25 05:06:59;;;;;;;;;;;;;;;29.01;55.35;98698.03;2063752;28;19929;-67
2022/07/25 05:08:01;;;;;;;;;;;;;;;28.97;55.20;98702.38;2074363;28;20450;-68
2022/07/25 05:09:01;;;;;;;;;;;;;;;29.05;55.13;98701.88;2078090;28;20168;-69
2022/07/25 05:10:03;;;;;;;;;;;;;;;29.05;55.12;98698.34;2075475;28;19935;-68
2022/07/25 05:11:07;;;;;;;;;;;;;;;29.07;55.22;98696.16;2074325;28;22344;-68
2022/07/25 05:12:07;;;;;;;;;;;;;;;29.10;54.89;98695.63;2070643;28;20845;-67
2022/07/25 05:13:09;;;;;;;;;;;;;;;29.11;55.18;98695.38;2069443;28;19929;-68
2022/07/25 05:14:11;;;;;;;;;;;;;;;29.12;55.12;98702.47;2067506;28;21940;-67
2022/07/25 05:15:11;;;;;;;;;;;;;;;28.95;55.75;98697.22;2065645;28;20482;-66
2022/07/25 05:16:13;;;;;;;;;;;;;;;28.99;55.65;98702.13;2066400;28;19960;-74
2022/07/25 05:17:13;;;;;;;;;;;;;;;28.85;56.31;98701.84;2068589;28;19929;-72
2022/07/25 05:18:15;;;;;;;;;;;;;;;28.77;56.66;98708.63;2070168;28;20375;-73
2022/07/25 05:19:15;;;;;;;;;;;;;;;28.91;55.62;98704.28;2060882;28;20317;-74